sensor_id;sensor_type;location;lat;lon;timestamp;pressure;altitude;pressure_sealevel;temperature;humidity
4346;BME280;2186;49.866;7.986;2023-06-10T00:01:37;99888.19;;;21.23;65.04
4346;BME280;2186;49.866;7.986;2023-06-10T00:04:04;99890.59;;;21.28;65.23
4346;BME280;2186;49.866;7.986;2023-06-10T00:06:31;99893.78;;;21.33;64.97
4346;BME280;2186;49.866;7.986;2023-06-10T00:09:03;99888.25;;;21.35;65.25
4346;BME280;2186;49.866;7.986;2023-06-10T00:11:33;99889.94;;;21.24;65.64
4346;BME280;2186;49.866;7.986;2023-06-10T00:14:00;99893.00;;;21.20;65.78
4346;BME280;2186;49.866;7.986;2023-06-10T00:16:27;99889.06;;;21.24;65.73
4346;BME280;2186;49.866;7.986;2023-06-10T00:18:53;99891.03;;;21.22;65.93
4346;BME280;2186;49.866;7.986;2023-06-10T00:21:42;99885.50;;;21.12;66.36
4346;BME280;2186;49.866;7.986;2023-06-10T00:24:11;99885.38;;;21.14;66.20
4346;BME280;2186;49.866;7.986;2023-06-10T00:26:41;99888.00;;;21.26;65.96
4346;BME280;2186;49.866;7.986;2023-06-10T00:29:08;99884.09;;;21.42;65.30
4346;BME280;2186;49.866;7.986;2023-06-10T00:31:35;99880.88;;;21.25;65.88
4346;BME280;2186;49.866;7.986;2023-06-10T00:34:01;99887.50;;;21.33;66.15
4346;BME280;2186;49.866;7.986;2023-06-10T00:36:29;99889.84;;;21.26;65.88
4346;BME280;2186;49.866;7.986;2023-06-10T00:38:56;99887.75;;;21.29;65.82
4346;BME280;2186;49.866;7.986;2023-06-10T00:41:23;99896.72;;;21.30;65.87
4346;BME280;2186;49.866;7.986;2023-06-10T00:43:49;99897.91;;;21.15;66.83
4346;BME280;2186;49.866;7.986;2023-06-10T00:46:16;99885.94;;;20.95;67.43
4346;BME280;2186;49.866;7.986;2023-06-10T00:48:43;99887.41;;;20.88;67.86
4346;BME280;2186;49.866;7.986;2023-06-10T00:51:11;99892.13;;;20.97;67.59
4346;BME280;2186;49.866;7.986;2023-06-10T00:53:39;99895.41;;;20.89;68.09
4346;BME280;2186;49.866;7.986;2023-06-10T00:56:07;99888.97;;;20.79;68.62
4346;BME280;2186;49.866;7.986;2023-06-10T00:58:35;99903.97;;;20.72;69.99
4346;BME280;2186;49.866;7.986;2023-06-10T01:01:02;99904.63;;;20.87;68.43
4346;BME280;2186;49.866;7.986;2023-06-10T01:03:30;99900.41;;;20.72;68.36
4346;BME280;2186;49.866;7.986;2023-06-10T01:06:09;99903.50;;;20.54;69.27
4346;BME280;2186;49.866;7.986;2023-06-10T01:08:57;99908.34;;;20.62;69.31
4346;BME280;2186;49.866;7.986;2023-06-10T01:11:34;99906.13;;;20.19;71.11
4346;BME280;2186;49.866;7.986;2023-06-10T01:14:03;99916.59;;;19.87;72.32
4346;BME280;2186;49.866;7.986;2023-06-10T01:16:31;99910.59;;;19.71;73.29
4346;BME280;2186;49.866;7.986;2023-06-10T01:18:58;99905.63;;;19.77;73.31
4346;BME280;2186;49.866;7.986;2023-06-10T01:21:26;99910.06;;;19.66;73.82
4346;BME280;2186;49.866;7.986;2023-06-10T01:23:54;99912.00;;;19.51;75.01
4346;BME280;2186;49.866;7.986;2023-06-10T01:26:25;99914.41;;;19.56;74.96
4346;BME280;2186;49.866;7.986;2023-06-10T01:28:59;99916.44;;;19.52;74.89
4346;BME280;2186;49.866;7.986;2023-06-10T01:31:44;99914.25;;;19.70;74.19
4346;BME280;2186;49.866;7.986;2023-06-10T01:34:14;99913.28;;;19.71;74.24
4346;BME280;2186;49.866;7.986;2023-06-10T01:36:46;99912.66;;;19.29;75.86
4346;BME280;2186;49.866;7.986;2023-06-10T01:39:19;99912.78;;;19.28;76.06
4346;BME280;2186;49.866;7.986;2023-06-10T01:41:48;99916.22;;;19.42;76.20
4346;BME280;2186;49.866;7.986;2023-06-10T01:44:20;99913.00;;;19.24;76.63
4346;BME280;2186;49.866;7.986;2023-06-10T01:46:46;99918.25;;;18.88;77.54
4346;BME280;2186;49.866;7.986;2023-06-10T01:49:13;99912.56;;;18.92;77.86
4346;BME280;2186;49.866;7.986;2023-06-10T01:51:40;99908.53;;;18.73;78.84
4346;BME280;2186;49.866;7.986;2023-06-10T01:54:06;99915.22;;;18.80;78.31
4346;BME280;2186;49.866;7.986;2023-06-10T01:56:33;99920.84;;;18.62;79.56
4346;BME280;2186;49.866;7.986;2023-06-10T01:58:59;99912.72;;;18.77;79.13
4346;BME280;2186;49.866;7.986;2023-06-10T02:01:26;99919.66;;;18.93;78.63
4346;BME280;2186;49.866;7.986;2023-06-10T02:03:53;99922.19;;;18.70;79.34
4346;BME280;2186;49.866;7.986;2023-06-10T02:06:19;99916.59;;;18.73;79.93
4346;BME280;2186;49.866;7.986;2023-06-10T02:08:46;99916.75;;;18.57;79.88
4346;BME280;2186;49.866;7.986;2023-06-10T02:11:13;99920.06;;;18.48;80.35
4346;BME280;2186;49.866;7.986;2023-06-10T02:13:39;99919.50;;;18.43;80.51
4346;BME280;2186;49.866;7.986;2023-06-10T02:16:06;99935.44;;;18.19;82.44
4346;BME280;2186;49.866;7.986;2023-06-10T02:18:32;99924.47;;;18.22;81.77
4346;BME280;2186;49.866;7.986;2023-06-10T02:21:00;99932.59;;;18.08;82.01
4346;BME280;2186;49.866;7.986;2023-06-10T02:23:26;99922.34;;;18.00;82.71
4346;BME280;2186;49.866;7.986;2023-06-10T02:25:52;99933.34;;;18.24;81.68
4346;BME280;2186;49.866;7.986;2023-06-10T02:28:19;99933.75;;;18.03;82.56
4346;BME280;2186;49.866;7.986;2023-06-10T02:30:45;99944.16;;;17.81;84.03
4346;BME280;2186;49.866;7.986;2023-06-10T02:33:13;99929.47;;;17.87;83.75
4346;BME280;2186;49.866;7.986;2023-06-10T02:35:40;99931.88;;;17.77;84.58
4346;BME280;2186;49.866;7.986;2023-06-10T02:38:07;99936.88;;;17.83;84.42
4346;BME280;2186;49.866;7.986;2023-06-10T02:40:34;99939.56;;;17.83;83.96
4346;BME280;2186;49.866;7.986;2023-06-10T02:43:00;99945.31;;;17.63;85.27
4346;BME280;2186;49.866;7.986;2023-06-10T02:45:27;99951.25;;;17.68;86.37
4346;BME280;2186;49.866;7.986;2023-06-10T02:47:53;99940.59;;;17.66;85.67
4346;BME280;2186;49.866;7.986;2023-06-10T02:50:20;99953.78;;;17.85;85.08
4346;BME280;2186;49.866;7.986;2023-06-10T02:52:46;99953.78;;;17.42;87.25
4346;BME280;2186;49.866;7.986;2023-06-10T02:55:13;99954.13;;;17.51;86.79
4346;BME280;2186;49.866;7.986;2023-06-10T02:57:39;99952.31;;;17.37;87.56
4346;BME280;2186;49.866;7.986;2023-06-10T03:00:07;99956.72;;;17.52;87.36
4346;BME280;2186;49.866;7.986;2023-06-10T03:02:37;99947.44;;;17.58;86.18
4346;BME280;2186;49.866;7.986;2023-06-10T03:05:06;99954.75;;;17.56;85.87
4346;BME280;2186;49.866;7.986;2023-06-10T03:07:37;99953.56;;;17.31;87.28
4346;BME280;2186;49.866;7.986;2023-06-10T03:10:03;99957.88;;;17.48;86.76
4346;BME280;2186;49.866;7.986;2023-06-10T03:12:30;99954.63;;;17.29;88.23
4346;BME280;2186;49.866;7.986;2023-06-10T03:14:57;99951.84;;;17.30;88.05
4346;BME280;2186;49.866;7.986;2023-06-10T03:17:23;99956.34;;;17.30;87.59
4346;BME280;2186;49.866;7.986;2023-06-10T03:19:50;99956.53;;;16.82;89.03
4346;BME280;2186;49.866;7.986;2023-06-10T03:22:16;99951.41;;;17.08;88.66
4346;BME280;2186;49.866;7.986;2023-06-10T03:24:43;99956.28;;;16.87;89.76
4346;BME280;2186;49.866;7.986;2023-06-10T03:27:12;99962.28;;;16.76;89.92
4346;BME280;2186;49.866;7.986;2023-06-10T03:29:39;99962.53;;;16.72;90.22
4346;BME280;2186;49.866;7.986;2023-06-10T03:32:06;99962.81;;;16.67;90.21
4346;BME280;2186;49.866;7.986;2023-06-10T03:34:33;99968.09;;;16.69;90.48
4346;BME280;2186;49.866;7.986;2023-06-10T03:37:00;99964.34;;;16.71;90.32
4346;BME280;2186;49.866;7.986;2023-06-10T03:39:26;99956.81;;;16.78;89.87
4346;BME280;2186;49.866;7.986;2023-06-10T03:41:55;99965.94;;;16.75;89.86
4346;BME280;2186;49.866;7.986;2023-06-10T03:44:24;99971.38;;;16.74;89.61
4346;BME280;2186;49.866;7.986;2023-06-10T03:46:52;99971.78;;;16.66;89.32
4346;BME280;2186;49.866;7.986;2023-06-10T03:49:19;99974.94;;;16.43;90.88
4346;BME280;2186;49.866;7.986;2023-06-10T03:51:46;99974.78;;;16.46;90.70
4346;BME280;2186;49.866;7.986;2023-06-10T03:54:12;99979.34;;;16.59;90.65
4346;BME280;2186;49.866;7.986;2023-06-10T03:56:39;99982.22;;;16.41;91.19
4346;BME280;2186;49.866;7.986;2023-06-10T03:59:05;99976.84;;;16.41;91.41
4346;BME280;2186;49.866;7.986;2023-06-10T04:01:32;99977.03;;;16.38;91.80
4346;BME280;2186;49.866;7.986;2023-06-10T04:03:59;99978.44;;;16.45;91.82
4346;BME280;2186;49.866;7.986;2023-06-10T04:06:27;99980.56;;;16.70;90.46
4346;BME280;2186;49.866;7.986;2023-06-10T04:08:55;99982.13;;;16.42;91.39
4346;BME280;2186;49.866;7.986;2023-06-10T04:11:26;99979.44;;;16.74;90.06
4346;BME280;2186;49.866;7.986;2023-06-10T04:13:52;99973.28;;;16.56;91.74
4346;BME280;2186;49.866;7.986;2023-06-10T04:16:20;99973.78;;;16.63;91.49
4346;BME280;2186;49.866;7.986;2023-06-10T04:18:47;99977.88;;;16.54;92.40
4346;BME280;2186;49.866;7.986;2023-06-10T04:21:13;99980.88;;;16.79;91.70
4346;BME280;2186;49.866;7.986;2023-06-10T04:23:40;99987.88;;;16.82;92.26
4346;BME280;2186;49.866;7.986;2023-06-10T04:26:07;99981.41;;;16.70;92.13
4346;BME280;2186;49.866;7.986;2023-06-10T04:28:33;99983.34;;;17.12;90.98
4346;BME280;2186;49.866;7.986;2023-06-10T04:31:00;99987.03;;;17.84;88.00
4346;BME280;2186;49.866;7.986;2023-06-10T04:33:27;99987.16;;;18.51;85.11
4346;BME280;2186;49.866;7.986;2023-06-10T04:35:54;99990.13;;;19.00;82.25
4346;BME280;2186;49.866;7.986;2023-06-10T04:38:21;99986.75;;;19.49;79.90
4346;BME280;2186;49.866;7.986;2023-06-10T04:40:47;99998.47;;;19.99;77.79
4346;BME280;2186;49.866;7.986;2023-06-10T04:43:14;100002.25;;;20.09;76.35
4346;BME280;2186;49.866;7.986;2023-06-10T04:45:42;99998.84;;;20.44;75.25
4346;BME280;2186;49.866;7.986;2023-06-10T04:48:11;99991.03;;;20.52;74.75
4346;BME280;2186;49.866;7.986;2023-06-10T04:50:37;100000.16;;;20.62;73.67
4346;BME280;2186;49.866;7.986;2023-06-10T04:53:05;99995.00;;;21.18;71.56
4346;BME280;2186;49.866;7.986;2023-06-10T04:55:32;99997.69;;;21.18;71.76
4346;BME280;2186;49.866;7.986;2023-06-10T04:58:00;99999.41;;;21.19;71.48
4346;BME280;2186;49.866;7.986;2023-06-10T05:00:27;100002.34;;;21.40;71.17
4346;BME280;2186;49.866;7.986;2023-06-10T05:02:53;100000.91;;;21.69;69.99
4346;BME280;2186;49.866;7.986;2023-06-10T05:05:20;100003.13;;;21.86;69.35
4346;BME280;2186;49.866;7.986;2023-06-10T05:07:47;100006.31;;;21.92;68.98
4346;BME280;2186;49.866;7.986;2023-06-10T05:10:14;100001.28;;;21.98;68.51
4346;BME280;2186;49.866;7.986;2023-06-10T05:12:40;99997.75;;;22.09;67.76
4346;BME280;2186;49.866;7.986;2023-06-10T05:15:08;100001.03;;;22.01;68.76
4346;BME280;2186;49.866;7.986;2023-06-10T05:17:35;100002.91;;;22.12;67.85
4346;BME280;2186;49.866;7.986;2023-06-10T05:20:03;100001.69;;;22.59;66.13
4346;BME280;2186;49.866;7.986;2023-06-10T05:22:29;100006.03;;;22.62;65.90
4346;BME280;2186;49.866;7.986;2023-06-10T05:24:56;100005.56;;;22.89;64.78
4346;BME280;2186;49.866;7.986;2023-06-10T05:27:23;99993.53;;;22.70;65.55
4346;BME280;2186;49.866;7.986;2023-06-10T05:29:50;100000.47;;;23.07;64.46
4346;BME280;2186;49.866;7.986;2023-06-10T05:32:18;99997.88;;;23.26;62.62
4346;BME280;2186;49.866;7.986;2023-06-10T05:34:44;100004.56;;;23.22;63.28
4346;BME280;2186;49.866;7.986;2023-06-10T05:37:12;99998.47;;;23.50;63.24
4346;BME280;2186;49.866;7.986;2023-06-10T05:39:39;99994.16;;;23.27;63.72
4346;BME280;2186;49.866;7.986;2023-06-10T05:42:06;99996.06;;;23.57;62.88
4346;BME280;2186;49.866;7.986;2023-06-10T05:44:33;100004.13;;;23.58;63.48
4346;BME280;2186;49.866;7.986;2023-06-10T05:47:00;100004.91;;;23.70;64.43
4346;BME280;2186;49.866;7.986;2023-06-10T05:49:27;100001.81;;;23.84;61.92
4346;BME280;2186;49.866;7.986;2023-06-10T05:51:53;100002.44;;;23.98;62.34
4346;BME280;2186;49.866;7.986;2023-06-10T05:54:20;100011.38;;;24.40;59.77
4346;BME280;2186;49.866;7.986;2023-06-10T05:56:46;100016.19;;;24.27;61.00
4346;BME280;2186;49.866;7.986;2023-06-10T05:59:12;100014.00;;;24.61;59.05
4346;BME280;2186;49.866;7.986;2023-06-10T06:01:39;100018.72;;;24.59;58.87
4346;BME280;2186;49.866;7.986;2023-06-10T06:04:05;100009.56;;;24.79;59.07
4346;BME280;2186;49.866;7.986;2023-06-10T06:06:32;100022.66;;;25.14;57.02
4346;BME280;2186;49.866;7.986;2023-06-10T06:08:59;100019.59;;;24.78;57.52
4346;BME280;2186;49.866;7.986;2023-06-10T06:11:25;100015.66;;;25.12;57.90
4346;BME280;2186;49.866;7.986;2023-06-10T06:13:52;100020.38;;;25.09;57.76
4346;BME280;2186;49.866;7.986;2023-06-10T06:16:19;100013.50;;;25.15;57.34
4346;BME280;2186;49.866;7.986;2023-06-10T06:18:46;100015.00;;;25.66;55.86
4346;BME280;2186;49.866;7.986;2023-06-10T06:21:12;100015.31;;;25.44;56.64
4346;BME280;2186;49.866;7.986;2023-06-10T06:23:38;100013.19;;;25.28;57.48
4346;BME280;2186;49.866;7.986;2023-06-10T06:26:05;100012.00;;;25.59;56.58
4346;BME280;2186;49.866;7.986;2023-06-10T06:28:34;100013.38;;;25.92;55.40
4346;BME280;2186;49.866;7.986;2023-06-10T06:31:00;100015.00;;;26.50;52.63
4346;BME280;2186;49.866;7.986;2023-06-10T06:33:27;100003.28;;;26.30;52.16
4346;BME280;2186;49.866;7.986;2023-06-10T06:35:53;100011.97;;;26.16;51.88
4346;BME280;2186;49.866;7.986;2023-06-10T06:38:20;100003.81;;;25.79;54.21
4346;BME280;2186;49.866;7.986;2023-06-10T06:40:47;100004.38;;;26.19;52.71
4346;BME280;2186;49.866;7.986;2023-06-10T06:43:13;100006.09;;;26.20;51.35
4346;BME280;2186;49.866;7.986;2023-06-10T06:45:39;100007.81;;;26.21;51.95
4346;BME280;2186;49.866;7.986;2023-06-10T06:48:06;100011.84;;;26.45;52.39
4346;BME280;2186;49.866;7.986;2023-06-10T06:50:33;100021.31;;;26.13;52.49
4346;BME280;2186;49.866;7.986;2023-06-10T06:52:59;100017.34;;;26.35;47.43
4346;BME280;2186;49.866;7.986;2023-06-10T06:55:27;100013.59;;;25.52;47.32
4346;BME280;2186;49.866;7.986;2023-06-10T06:57:54;100015.03;;;26.40;45.89
4346;BME280;2186;49.866;7.986;2023-06-10T07:00:20;100010.28;;;26.42;45.41
4346;BME280;2186;49.866;7.986;2023-06-10T07:02:47;100017.13;;;26.19;45.60
4346;BME280;2186;49.866;7.986;2023-06-10T07:05:14;100025.19;;;26.11;45.82
4346;BME280;2186;49.866;7.986;2023-06-10T07:07:41;100020.81;;;25.90;46.71
4346;BME280;2186;49.866;7.986;2023-06-10T07:10:07;100030.47;;;25.75;46.95
4346;BME280;2186;49.866;7.986;2023-06-10T07:12:34;100029.66;;;25.17;48.23
4346;BME280;2186;49.866;7.986;2023-06-10T07:15:01;100042.84;;;25.12;47.75
4346;BME280;2186;49.866;7.986;2023-06-10T07:17:27;100037.38;;;25.31;47.80
4346;BME280;2186;49.866;7.986;2023-06-10T07:19:53;100036.50;;;25.59;48.05
4346;BME280;2186;49.866;7.986;2023-06-10T07:22:23;100039.00;;;25.99;47.06
4346;BME280;2186;49.866;7.986;2023-06-10T07:24:50;100036.78;;;25.76;45.93
4346;BME280;2186;49.866;7.986;2023-06-10T07:27:18;100036.19;;;25.91;46.65
4346;BME280;2186;49.866;7.986;2023-06-10T07:29:44;100036.03;;;25.93;46.20
4346;BME280;2186;49.866;7.986;2023-06-10T07:32:11;100033.63;;;25.71;47.29
4346;BME280;2186;49.866;7.986;2023-06-10T07:34:37;100033.56;;;25.90;47.33
4346;BME280;2186;49.866;7.986;2023-06-10T07:37:04;100035.69;;;26.06;47.03
4346;BME280;2186;49.866;7.986;2023-06-10T07:39:31;100035.41;;;25.99;46.79
4346;BME280;2186;49.866;7.986;2023-06-10T07:41:57;100026.25;;;26.27;46.64
4346;BME280;2186;49.866;7.986;2023-06-10T07:44:24;100029.16;;;26.16;47.13
4346;BME280;2186;49.866;7.986;2023-06-10T07:46:50;100020.94;;;25.98;46.42
4346;BME280;2186;49.866;7.986;2023-06-10T07:49:17;100024.53;;;25.99;46.94
4346;BME280;2186;49.866;7.986;2023-06-10T07:51:43;100018.03;;;26.47;46.40
4346;BME280;2186;49.866;7.986;2023-06-10T07:54:10;100019.75;;;26.66;45.34
4346;BME280;2186;49.866;7.986;2023-06-10T07:56:39;100019.44;;;26.51;45.49
4346;BME280;2186;49.866;7.986;2023-06-10T07:59:05;100021.75;;;26.09;46.17
4346;BME280;2186;49.866;7.986;2023-06-10T08:01:32;100018.91;;;26.65;45.63
4346;BME280;2186;49.866;7.986;2023-06-10T08:03:59;100022.50;;;26.83;45.30
4346;BME280;2186;49.866;7.986;2023-06-10T08:06:26;100022.13;;;26.78;46.32
4346;BME280;2186;49.866;7.986;2023-06-10T08:08:52;100025.56;;;26.98;45.62
4346;BME280;2186;49.866;7.986;2023-06-10T08:11:19;100023.63;;;27.26;44.54
4346;BME280;2186;49.866;7.986;2023-06-10T08:13:46;100022.56;;;27.01;45.29
4346;BME280;2186;49.866;7.986;2023-06-10T08:16:13;100022.59;;;26.92;44.58
4346;BME280;2186;49.866;7.986;2023-06-10T08:18:40;100031.16;;;26.97;45.34
4346;BME280;2186;49.866;7.986;2023-06-10T08:21:06;100021.13;;;27.33;44.43
4346;BME280;2186;49.866;7.986;2023-06-10T08:23:33;100020.91;;;27.08;44.32
4346;BME280;2186;49.866;7.986;2023-06-10T08:25:59;100025.41;;;27.35;43.68
4346;BME280;2186;49.866;7.986;2023-06-10T08:28:26;100026.56;;;27.51;44.41
4346;BME280;2186;49.866;7.986;2023-06-10T08:30:52;100028.56;;;27.66;43.27
4346;BME280;2186;49.866;7.986;2023-06-10T08:33:22;100027.44;;;27.33;43.73
4346;BME280;2186;49.866;7.986;2023-06-10T08:35:49;100014.13;;;27.30;43.47
4346;BME280;2186;49.866;7.986;2023-06-10T08:38:15;100018.31;;;27.42;43.63
4346;BME280;2186;49.866;7.986;2023-06-10T08:40:42;100012.94;;;28.02;42.27
4346;BME280;2186;49.866;7.986;2023-06-10T08:43:32;100012.47;;;27.37;43.63
4346;BME280;2186;49.866;7.986;2023-06-10T08:46:00;100004.06;;;27.74;42.82
4346;BME280;2186;49.866;7.986;2023-06-10T08:48:34;100012.50;;;27.89;41.70
4346;BME280;2186;49.866;7.986;2023-06-10T08:51:04;100014.91;;;27.66;42.36
4346;BME280;2186;49.866;7.986;2023-06-10T08:53:33;100007.34;;;27.60;43.77
4346;BME280;2186;49.866;7.986;2023-06-10T08:56:04;100011.75;;;27.79;44.07
4346;BME280;2186;49.866;7.986;2023-06-10T08:58:32;100005.84;;;28.52;42.53
4346;BME280;2186;49.866;7.986;2023-06-10T09:01:08;100007.38;;;28.20;42.96
4346;BME280;2186;49.866;7.986;2023-06-10T09:03:37;100006.28;;;28.05;43.29
4346;BME280;2186;49.866;7.986;2023-06-10T09:06:07;100008.84;;;28.07;42.93
4346;BME280;2186;49.866;7.986;2023-06-10T09:08:34;100007.31;;;28.04;42.61
4346;BME280;2186;49.866;7.986;2023-06-10T09:11:01;99996.25;;;28.22;41.28
4346;BME280;2186;49.866;7.986;2023-06-10T09:13:29;100000.84;;;28.39;42.65
4346;BME280;2186;49.866;7.986;2023-06-10T09:15:55;99994.53;;;28.13;43.08
4346;BME280;2186;49.866;7.986;2023-06-10T09:18:27;99991.91;;;28.37;41.35
4346;BME280;2186;49.866;7.986;2023-06-10T09:20:54;99998.50;;;27.84;41.65
4346;BME280;2186;49.866;7.986;2023-06-10T09:23:21;99994.34;;;28.40;42.38
4346;BME280;2186;49.866;7.986;2023-06-10T09:25:56;99999.25;;;28.37;42.35
4346;BME280;2186;49.866;7.986;2023-06-10T09:28:23;99998.78;;;28.49;40.48
4346;BME280;2186;49.866;7.986;2023-06-10T09:30:49;99993.56;;;28.72;39.85
4346;BME280;2186;49.866;7.986;2023-06-10T09:33:16;99995.91;;;28.17;41.37
4346;BME280;2186;49.866;7.986;2023-06-10T09:35:47;99996.00;;;28.33;42.32
4346;BME280;2186;49.866;7.986;2023-06-10T09:38:19;99992.50;;;28.15;41.99
4346;BME280;2186;49.866;7.986;2023-06-10T09:40:51;99985.56;;;28.28;40.24
4346;BME280;2186;49.866;7.986;2023-06-10T09:43:18;99986.28;;;27.96;40.59
4346;BME280;2186;49.866;7.986;2023-06-10T09:45:47;99984.94;;;28.43;40.53
4346;BME280;2186;49.866;7.986;2023-06-10T09:48:14;99987.38;;;28.12;40.60
4346;BME280;2186;49.866;7.986;2023-06-10T09:50:42;99996.06;;;28.41;40.13
4346;BME280;2186;49.866;7.986;2023-06-10T09:53:10;99985.97;;;28.42;40.71
4346;BME280;2186;49.866;7.986;2023-06-10T09:55:38;99982.00;;;28.28;40.71
4346;BME280;2186;49.866;7.986;2023-06-10T09:58:05;99982.72;;;28.46;40.14
4346;BME280;2186;49.866;7.986;2023-06-10T10:00:33;99984.94;;;28.51;41.03
4346;BME280;2186;49.866;7.986;2023-06-10T10:02:59;99981.28;;;28.84;40.08
4346;BME280;2186;49.866;7.986;2023-06-10T10:05:27;99983.09;;;28.59;40.65
4346;BME280;2186;49.866;7.986;2023-06-10T10:07:53;99973.88;;;28.52;40.61
4346;BME280;2186;49.866;7.986;2023-06-10T10:10:23;99986.91;;;28.83;39.48
4346;BME280;2186;49.866;7.986;2023-06-10T10:12:56;99975.88;;;29.09;39.57
4346;BME280;2186;49.866;7.986;2023-06-10T10:15:24;99966.25;;;29.05;39.52
4346;BME280;2186;49.866;7.986;2023-06-10T10:18:06;99966.63;;;28.94;40.35
4346;BME280;2186;49.866;7.986;2023-06-10T10:20:35;99968.31;;;28.95;39.38
4346;BME280;2186;49.866;7.986;2023-06-10T10:23:04;99978.19;;;28.79;39.68
4346;BME280;2186;49.866;7.986;2023-06-10T10:25:38;99974.00;;;28.51;40.27
4346;BME280;2186;49.866;7.986;2023-06-10T10:28:12;99973.78;;;29.27;39.77
4346;BME280;2186;49.866;7.986;2023-06-10T10:30:45;99984.41;;;29.14;40.23
4346;BME280;2186;49.866;7.986;2023-06-10T10:33:16;99972.44;;;29.07;40.29
4346;BME280;2186;49.866;7.986;2023-06-10T10:35:46;99974.63;;;28.87;40.01
4346;BME280;2186;49.866;7.986;2023-06-10T10:38:13;99962.16;;;29.01;39.93
4346;BME280;2186;49.866;7.986;2023-06-10T10:40:40;99971.25;;;29.09;38.67
4346;BME280;2186;49.866;7.986;2023-06-10T10:43:08;99981.16;;;29.02;40.21
4346;BME280;2186;49.866;7.986;2023-06-10T10:45:35;99971.03;;;28.78;39.13
4346;BME280;2186;49.866;7.986;2023-06-10T10:48:07;99973.09;;;29.01;39.34
4346;BME280;2186;49.866;7.986;2023-06-10T10:50:36;99961.31;;;29.49;39.52
4346;BME280;2186;49.866;7.986;2023-06-10T10:53:04;99968.47;;;29.42;39.33
4346;BME280;2186;49.866;7.986;2023-06-10T10:55:31;99964.91;;;29.49;38.70
4346;BME280;2186;49.866;7.986;2023-06-10T11:00:34;99967.09;;;28.89;38.97
4346;BME280;2186;49.866;7.986;2023-06-10T11:03:07;99961.94;;;28.70;38.24
4346;BME280;2186;49.866;7.986;2023-06-10T11:05:41;99951.53;;;28.89;38.75
4346;BME280;2186;49.866;7.986;2023-06-10T11:08:11;99964.38;;;28.97;38.72
4346;BME280;2186;49.866;7.986;2023-06-10T11:10:50;99955.78;;;28.84;39.30
4346;BME280;2186;49.866;7.986;2023-06-10T11:13:19;99946.22;;;29.53;39.32
4346;BME280;2186;49.866;7.986;2023-06-10T11:15:50;99947.94;;;29.30;38.48
4346;BME280;2186;49.866;7.986;2023-06-10T11:18:28;99942.63;;;29.61;38.73
4346;BME280;2186;49.866;7.986;2023-06-10T11:20:57;99945.50;;;29.67;38.32
4346;BME280;2186;49.866;7.986;2023-06-10T11:25:51;99930.41;;;29.79;37.58
4346;BME280;2186;49.866;7.986;2023-06-10T11:28:19;99934.47;;;29.92;38.13
4346;BME280;2186;49.866;7.986;2023-06-10T11:30:46;99944.94;;;29.88;38.23
4346;BME280;2186;49.866;7.986;2023-06-10T11:33:17;99942.28;;;29.64;38.21
4346;BME280;2186;49.866;7.986;2023-06-10T11:35:43;99941.78;;;29.36;38.11
4346;BME280;2186;49.866;7.986;2023-06-10T11:38:10;99937.00;;;29.38;38.34
4346;BME280;2186;49.866;7.986;2023-06-10T11:40:37;99927.41;;;29.26;37.85
4346;BME280;2186;49.866;7.986;2023-06-10T11:43:04;99925.41;;;29.91;38.38
4346;BME280;2186;49.866;7.986;2023-06-10T11:45:30;99924.63;;;29.66;38.08
4346;BME280;2186;49.866;7.986;2023-06-10T11:47:57;99918.31;;;29.58;38.51
4346;BME280;2186;49.866;7.986;2023-06-10T11:50:29;99924.31;;;29.61;38.17
4346;BME280;2186;49.866;7.986;2023-06-10T11:52:56;99929.78;;;29.61;38.19
4346;BME280;2186;49.866;7.986;2023-06-10T11:55:25;99931.88;;;29.10;37.68
4346;BME280;2186;49.866;7.986;2023-06-10T11:57:52;99926.59;;;29.09;37.94
4346;BME280;2186;49.866;7.986;2023-06-10T12:00:23;99924.19;;;28.98;37.82
4346;BME280;2186;49.866;7.986;2023-06-10T12:02:56;99919.53;;;29.39;38.04
4346;BME280;2186;49.866;7.986;2023-06-10T12:05:24;99913.06;;;29.87;37.94
4346;BME280;2186;49.866;7.986;2023-06-10T12:08:08;99915.06;;;29.54;37.68
4346;BME280;2186;49.866;7.986;2023-06-10T12:10:40;99907.28;;;29.74;37.97
4346;BME280;2186;49.866;7.986;2023-06-10T12:13:08;99908.16;;;29.74;37.44
4346;BME280;2186;49.866;7.986;2023-06-10T12:15:35;99915.06;;;30.10;37.07
4346;BME280;2186;49.866;7.986;2023-06-10T12:18:02;99920.09;;;29.90;37.33
4346;BME280;2186;49.866;7.986;2023-06-10T12:20:30;99911.47;;;29.62;38.31
4346;BME280;2186;49.866;7.986;2023-06-10T12:23:00;99903.25;;;30.09;37.44
4346;BME280;2186;49.866;7.986;2023-06-10T12:25:28;99908.47;;;29.79;36.86
4346;BME280;2186;49.866;7.986;2023-06-10T12:27:58;99911.53;;;29.85;37.89
4346;BME280;2186;49.866;7.986;2023-06-10T12:30:26;99902.34;;;29.77;37.55
4346;BME280;2186;49.866;7.986;2023-06-10T12:32:53;99901.22;;;29.31;38.57
4346;BME280;2186;49.866;7.986;2023-06-10T12:35:24;99908.00;;;29.76;38.77
4346;BME280;2186;49.866;7.986;2023-06-10T12:40:32;99903.13;;;29.23;38.90
4346;BME280;2186;49.866;7.986;2023-06-10T12:42:59;99915.00;;;29.78;38.28
4346;BME280;2186;49.866;7.986;2023-06-10T12:45:37;99909.16;;;29.73;38.11
4346;BME280;2186;49.866;7.986;2023-06-10T12:48:07;99900.38;;;30.33;38.01
4346;BME280;2186;49.866;7.986;2023-06-10T12:50:40;99899.31;;;30.03;37.18
4346;BME280;2186;49.866;7.986;2023-06-10T12:53:07;99893.63;;;30.13;37.42
4346;BME280;2186;49.866;7.986;2023-06-10T12:55:34;99895.31;;;29.75;38.61
4346;BME280;2186;49.866;7.986;2023-06-10T12:58:01;99894.69;;;29.96;38.31
4346;BME280;2186;49.866;7.986;2023-06-10T13:00:28;99897.91;;;29.60;39.11
4346;BME280;2186;49.866;7.986;2023-06-10T13:03:00;99899.00;;;29.35;39.71
4346;BME280;2186;49.866;7.986;2023-06-10T13:05:32;99895.41;;;29.34;39.35
4346;BME280;2186;49.866;7.986;2023-06-10T13:07:59;99890.97;;;29.25;38.63
4346;BME280;2186;49.866;7.986;2023-06-10T13:10:26;99889.88;;;29.42;38.52
4346;BME280;2186;49.866;7.986;2023-06-10T13:12:53;99884.47;;;29.18;38.99
4346;BME280;2186;49.866;7.986;2023-06-10T13:15:23;99875.69;;;29.39;38.24
4346;BME280;2186;49.866;7.986;2023-06-10T13:17:49;99875.19;;;29.52;37.51
4346;BME280;2186;49.866;7.986;2023-06-10T13:20:17;99875.22;;;29.83;37.54
4346;BME280;2186;49.866;7.986;2023-06-10T13:22:44;99871.84;;;30.12;37.73
4346;BME280;2186;49.866;7.986;2023-06-10T13:25:11;99871.50;;;30.15;36.86
4346;BME280;2186;49.866;7.986;2023-06-10T13:27:38;99862.94;;;30.18;36.37
4346;BME280;2186;49.866;7.986;2023-06-10T13:30:06;99858.63;;;30.69;34.28